Time;durP1;ratioP1;P1;durP2;ratioP2;P2;SDS_P1;SDS_P2;PMS_P1;PMS_P2;Temp;Humidity;BMP_temperature;BMP_pressure;BME280_temperature;BME280_humidity;BME280_pressure;Samples;Min_cycle;Max_cycle;Signal;HPM_P1;HPM_P2
2023/06/24 00:01:14;;;;;;;3.87;0.90;;;;;;;;;;5098576;27;88266;-53
2023/06/24 00:03:46;;;;;;;1.13;0.90;;;;;;;;;;5097072;27;88077;-53
2023/06/24 00:06:18;;;;;;;1.47;1.03;;;;;;;;;;5095297;27;88204;-53
2023/06/24 00:08:46;;;;;;;0.70;0.60;;;;;;;;;;5097640;27;89572;-55
2023/06/24 00:11:15;;;;;;;1.43;1.17;;;;;;;;;;5078164;27;89264;-53
2023/06/24 00:13:44;;;;;;;1.33;0.77;;;;;;;;;;5078141;27;87698;-52
2023/06/24 00:16:13;;;;;;;1.00;0.73;;;;;;;;;;5094001;27;88051;-52
2023/06/24 00:18:41;;;;;;;1.93;1.20;;;;;;;;;;5079459;27;89805;-52
2023/06/24 00:21:10;;;;;;;1.60;0.73;;;;;;;;;;5095473;27;88162;-53
2023/06/24 00:23:38;;;;;;;1.47;0.90;;;;;;;;;;5077462;27;89058;-52
2023/06/24 00:26:07;;;;;;;1.27;0.87;;;;;;;;;;5079290;27;87585;-52
2023/06/24 00:28:36;;;;;;;1.80;1.30;;;;;;;;;;5078744;27;89948;-54
2023/06/24 00:31:06;;;;;;;1.53;0.93;;;;;;;;;;5065276;27;88981;-52
2023/06/24 00:33:35;;;;;;;1.53;1.10;;;;;;;;;;5082587;27;88225;-52
2023/06/24 00:36:05;;;;;;;0.97;0.87;;;;;;;;;;5097100;27;87554;-52
2023/06/24 00:38:33;;;;;;;3.37;1.20;;;;;;;;;;5096371;27;89646;-52
2023/06/24 00:41:02;;;;;;;1.57;0.87;;;;;;;;;;5098271;27;89455;-52
2023/06/24 00:43:30;;;;;;;1.40;0.83;;;;;;;;;;5095930;27;88724;-52
2023/06/24 00:45:59;;;;;;;1.90;1.20;;;;;;;;;;5098347;27;87680;-52
2023/06/24 00:48:29;;;;;;;1.30;0.90;;;;;;;;;;5093639;27;88593;-52
2023/06/24 00:50:58;;;;;;;0.93;0.80;;;;;;;;;;5097055;27;89476;-52
2023/06/24 00:53:26;;;;;;;1.50;1.17;;;;;;;;;;5097830;27;88414;-52
2023/06/24 00:55:55;;;;;;;2.50;1.10;;;;;;;;;;5098381;27;87566;-52
2023/06/24 00:58:24;;;;;;;3.63;1.53;;;;;;;;;;5088678;27;89823;-52
2023/06/24 01:00:57;;;;;;;2.87;1.90;;;;;;;;;;5075169;27;88294;-52
2023/06/24 01:03:28;;;;;;;3.47;1.77;;;;;;;;;;5061347;27;88928;-53
2023/06/24 01:05:58;;;;;;;3.53;2.20;;;;;;;;;;5071528;27;87980;-52
2023/06/24 01:08:28;;;;;;;2.60;1.80;;;;;;;;;;5070160;27;88902;-52
2023/06/24 01:10:56;;;;;;;1.80;1.40;;;;;;;;;;5075181;27;88207;-52
2023/06/24 01:13:25;;;;;;;2.27;1.47;;;;;;;;;;5064214;27;87901;-53
2023/06/24 01:15:53;;;;;;;2.30;1.70;;;;;;;;;;5073167;27;87783;-52
2023/06/24 01:18:23;;;;;;;1.87;1.40;;;;;;;;;;5077111;27;88455;-52
2023/06/24 01:20:52;;;;;;;2.17;1.20;;;;;;;;;;5070025;27;89160;-53
2023/06/24 01:23:41;;;;;;;3.10;1.07;;;;;;;;;;5062954;27;89028;-52
2023/06/24 01:26:31;;;;;;;2.40;1.40;;;;;;;;;;5073203;27;88048;-52
2023/06/24 01:29:16;;;;;;;4.60;1.87;;;;;;;;;;5071267;27;88562;-53
2023/06/24 01:31:46;;;;;;;2.70;1.70;;;;;;;;;;5078268;27;91069;-52
2023/06/24 01:34:17;;;;;;;2.33;1.77;;;;;;;;;;5060215;27;88568;-53
2023/06/24 01:36:47;;;;;;;1.90;1.70;;;;;;;;;;5075230;27;88282;-52
2023/06/24 01:39:15;;;;;;;4.37;1.63;;;;;;;;;;5080561;27;89772;-52
2023/06/24 01:41:44;;;;;;;1.97;1.77;;;;;;;;;;5075400;27;88182;-53
2023/06/24 01:44:14;;;;;;;2.87;1.60;;;;;;;;;;5070312;27;88705;-52
2023/06/24 01:46:43;;;;;;;2.33;1.50;;;;;;;;;;5072993;27;87690;-52
2023/06/24 01:49:16;;;;;;;3.57;2.07;;;;;;;;;;5063828;27;88386;-53
2023/06/24 01:51:45;;;;;;;4.60;1.73;;;;;;;;;;5080258;27;89235;-53
2023/06/24 01:54:15;;;;;;;3.77;2.23;;;;;;;;;;5079554;27;87979;-53
2023/06/24 01:56:43;;;;;;;2.40;1.90;;;;;;;;;;5079557;27;87912;-53
2023/06/24 01:59:12;;;;;;;2.60;1.83;;;;;;;;;;5060468;27;89121;-52
2023/06/24 02:01:40;;;;;;;3.40;1.87;;;;;;;;;;5073982;27;88878;-52
2023/06/24 02:04:09;;;;;;;2.37;1.73;;;;;;;;;;5077954;27;87616;-52
2023/06/24 02:06:39;;;;;;;1.73;1.10;;;;;;;;;;5077941;27;87613;-53
2023/06/24 02:09:08;;;;;;;2.23;1.70;;;;;;;;;;5065711;27;88525;-52
2023/06/24 02:11:36;;;;;;;2.17;1.67;;;;;;;;;;5073993;27;89227;-52
2023/06/24 02:14:05;;;;;;;2.80;1.33;;;;;;;;;;5059395;27;88988;-52
2023/06/24 02:16:33;;;;;;;2.63;1.50;;;;;;;;;;5075841;27;87526;-53
2023/06/24 02:19:02;;;;;;;2.53;1.50;;;;;;;;;;5078898;27;89623;-53
2023/06/24 02:21:30;;;;;;;2.70;1.50;;;;;;;;;;5072814;27;90345;-52
2023/06/24 02:24:00;;;;;;;2.27;1.50;;;;;;;;;;5075252;27;89757;-52
2023/06/24 02:26:29;;;;;;;1.83;1.40;;;;;;;;;;5069435;27;87326;-53
2023/06/24 02:28:57;;;;;;;2.07;1.40;;;;;;;;;;5060003;27;89905;-52
2023/06/24 02:31:26;;;;;;;2.43;1.60;;;;;;;;;;5063309;27;89681;-53
2023/06/24 02:33:54;;;;;;;2.57;1.43;;;;;;;;;;5060694;27;89077;-53
2023/06/24 02:36:23;;;;;;;2.30;1.67;;;;;;;;;;5075385;27;87683;-52
2023/06/24 02:38:52;;;;;;;2.23;1.23;;;;;;;;;;5085071;27;89818;-52
2023/06/24 02:41:21;;;;;;;1.43;1.33;;;;;;;;;;5059388;27;88127;-52
2023/06/24 02:43:50;;;;;;;3.53;1.70;;;;;;;;;;5078082;27;89036;-53
2023/06/24 02:46:19;;;;;;;1.90;1.37;;;;;;;;;;5065744;27;88059;-52
2023/06/24 02:48:47;;;;;;;3.97;2.13;;;;;;;;;;5079931;27;88689;-52
2023/06/24 02:51:15;;;;;;;3.73;1.73;;;;;;;;;;5082649;27;89297;-52
2023/06/24 02:53:44;;;;;;;3.33;1.70;;;;;;;;;;5087804;27;88928;-53
2023/06/24 02:56:13;;;;;;;2.77;1.80;;;;;;;;;;5060360;27;87574;-54
2023/06/24 02:58:45;;;;;;;2.53;1.80;;;;;;;;;;5073033;27;89859;-52
2023/06/24 03:01:13;;;;;;;1.83;1.27;;;;;;;;;;5075143;27;89403;-52
2023/06/24 03:03:41;;;;;;;2.17;1.80;;;;;;;;;;5074190;27;89970;-52
2023/06/24 03:06:12;;;;;;;2.97;1.63;;;;;;;;;;5071423;27;87657;-52
2023/06/24 03:08:40;;;;;;;3.40;2.10;;;;;;;;;;5083300;27;89771;-53
2023/06/24 03:11:09;;;;;;;4.40;2.07;;;;;;;;;;5078061;27;88091;-53
2023/06/24 03:13:37;;;;;;;3.17;1.80;;;;;;;;;;5068822;27;89845;-53
2023/06/24 03:16:12;;;;;;;4.17;2.27;;;;;;;;;;5087400;27;88452;-53
2023/06/24 03:18:41;;;;;;;3.77;1.93;;;;;;;;;;5077312;27;89421;-52
2023/06/24 03:21:10;;;;;;;3.57;2.07;;;;;;;;;;5076133;27;88908;-53
2023/06/24 03:23:39;;;;;;;4.03;2.23;;;;;;;;;;5078560;27;88769;-52
2023/06/24 03:26:08;;;;;;;3.33;2.30;;;;;;;;;;5078614;27;87505;-53
2023/06/24 03:28:38;;;;;;;4.47;2.40;;;;;;;;;;5076794;27;90097;-53
2023/06/24 03:31:08;;;;;;;2.90;1.83;;;;;;;;;;5074869;27;87982;-52
2023/06/24 03:33:36;;;;;;;3.20;2.03;;;;;;;;;;5087883;27;87738;-53
2023/06/24 03:36:05;;;;;;;2.37;1.90;;;;;;;;;;5070894;27;87959;-52
2023/06/24 03:38:33;;;;;;;5.83;2.70;;;;;;;;;;5083135;27;89697;-53
2023/06/24 03:41:01;;;;;;;2.83;2.50;;;;;;;;;;5059907;27;89275;-52
2023/06/24 03:43:30;;;;;;;4.83;2.90;;;;;;;;;;5063467;27;89331;-52
2023/06/24 03:45:59;;;;;;;5.03;3.00;;;;;;;;;;5079530;27;88324;-52
2023/06/24 03:48:29;;;;;;;4.17;2.83;;;;;;;;;;5065323;27;88526;-53
2023/06/24 03:50:58;;;;;;;4.83;3.17;;;;;;;;;;5066491;27;88269;-52
2023/06/24 03:53:26;;;;;;;3.97;2.87;;;;;;;;;;5058616;27;87543;-54
2023/06/24 03:55:54;;;;;;;3.83;2.50;;;;;;;;;;5083132;27;88156;-53
2023/06/24 03:58:23;;;;;;;2.90;2.10;;;;;;;;;;5067229;27;88553;-53
2023/06/24 04:00:51;;;;;;;4.73;3.00;;;;;;;;;;5068656;27;90268;-53
2023/06/24 04:03:20;;;;;;;2.47;2.23;;;;;;;;;;5065048;27;88968;-53
2023/06/24 04:05:50;;;;;;;5.07;2.90;;;;;;;;;;5087665;27;87589;-53
2023/06/24 04:08:18;;;;;;;5.47;2.90;;;;;;;;;;5077099;27;89894;-53
2023/06/24 04:10:46;;;;;;;5.63;2.57;;;;;;;;;;5082635;27;89366;-52
2023/06/24 04:13:15;;;;;;;3.00;2.47;;;;;;;;;;5079822;27;87764;-53
2023/06/24 04:15:43;;;;;;;3.70;2.40;;;;;;;;;;5080893;27;87570;-53
2023/06/24 04:18:12;;;;;;;3.90;2.53;;;;;;;;;;5097643;27;89816;-53
2023/06/24 04:20:40;;;;;;;3.73;2.70;;;;;;;;;;5066056;27;88851;-53
2023/06/24 04:23:10;;;;;;;4.57;2.53;;;;;;;;;;5078810;27;87616;-53
2023/06/24 04:25:39;;;;;;;2.73;2.37;;;;;;;;;;5094689;27;88068;-53
2023/06/24 04:28:07;;;;;;;4.57;2.90;;;;;;;;;;5097856;27;89445;-53
2023/06/24 04:30:38;;;;;;;2.33;2.00;;;;;;;;;;5089993;27;88993;-53
2023/06/24 04:33:06;;;;;;;2.17;1.73;;;;;;;;;;5069291;27;87740;-53
2023/06/24 04:35:35;;;;;;;2.43;2.00;;;;;;;;;;5073267;27;89790;-53
2023/06/24 04:38:03;;;;;;;3.13;2.40;;;;;;;;;;5077024;27;88508;-53
2023/06/24 04:40:33;;;;;;;5.40;2.40;;;;;;;;;;5070887;27;88188;-53
2023/06/24 04:43:01;;;;;;;2.97;2.00;;;;;;;;;;5073118;27;88922;-53
2023/06/24 04:45:30;;;;;;;1.92;1.73;;;;;;;;;;5078593;27;87664;-53
2023/06/24 04:47:58;;;;;;;2.75;2.10;;;;;;;;;;5071494;27;89643;-53
2023/06/24 04:50:26;;;;;;;3.47;1.75;;;;;;;;;;5066231;27;90088;-53
2023/06/24 04:52:56;;;;;;;3.30;2.10;;;;;;;;;;5076648;27;87839;-53
2023/06/24 04:55:24;;;;;;;2.95;1.92;;;;;;;;;;5064756;27;87667;-53
2023/06/24 04:57:54;;;;;;;4.95;2.00;;;;;;;;;;5074605;27;89760;-54
2023/06/24 05:00:24;;;;;;;3.08;1.83;;;;;;;;;;5069802;27;89124;-53
2023/06/24 05:02:52;;;;;;;2.10;1.70;;;;;;;;;;5075665;27;88608;-53
2023/06/24 05:05:21;;;;;;;1.83;1.63;;;;;;;;;;5081544;27;87306;-53
2023/06/24 05:07:49;;;;;;;1.60;1.50;;;;;;;;;;5087411;27;89583;-53
2023/06/24 05:10:18;;;;;;;2.73;2.00;;;;;;;;;;5080033;27;88758;-53
2023/06/24 05:12:46;;;;;;;2.27;1.57;;;;;;;;;;5086779;27;87818;-53
2023/06/24 05:15:16;;;;;;;1.40;1.30;;;;;;;;;;5069080;27;88352;-53
2023/06/24 05:17:45;;;;;;;2.43;1.50;;;;;;;;;;5071116;27;88448;-53
2023/06/24 05:20:13;;;;;;;2.70;1.50;;;;;;;;;;5074940;27;87434;-53
2023/06/24 05:22:42;;;;;;;1.60;1.27;;;;;;;;;;5084222;27;87614;-53
2023/06/24 05:25:10;;;;;;;1.63;1.33;;;;;;;;;;5079894;27;88108;-53
2023/06/24 05:27:38;;;;;;;2.13;1.37;;;;;;;;;;5096038;27;89606;-53
2023/06/24 05:30:08;;;;;;;2.57;1.40;;;;;;;;;;5084954;27;88036;-53
2023/06/24 05:32:37;;;;;;;1.07;0.97;;;;;;;;;;5091766;27;88855;-53
2023/06/24 05:35:06;;;;;;;4.07;1.40;;;;;;;;;;5078209;27;88785;-54
2023/06/24 05:37:35;;;;;;;1.63;1.20;;;;;;;;;;5069153;27;89289;-53
2023/06/24 05:40:05;;;;;;;1.87;1.20;;;;;;;;;;5062125;27;89159;-53
2023/06/24 05:42:33;;;;;;;1.10;1.00;;;;;;;;;;5077662;27;89721;-53
2023/06/24 05:45:02;;;;;;;1.97;1.40;;;;;;;;;;5071071;27;87372;-53
2023/06/24 05:47:30;;;;;;;2.87;1.30;;;;;;;;;;5064047;27;88644;-53
2023/06/24 05:50:00;;;;;;;1.73;1.17;;;;;;;;;;5059858;27;89136;-53
2023/06/24 05:52:29;;;;;;;2.80;1.50;;;;;;;;;;5060450;27;87800;-53
2023/06/24 05:54:57;;;;;;;1.20;1.10;;;;;;;;;;5060388;27;87507;-53
2023/06/24 05:57:26;;;;;;;1.83;1.27;;;;;;;;;;5061393;27;90161;-53
2023/06/24 05:59:54;;;;;;;2.67;1.20;;;;;;;;;;5091956;27;89176;-53
2023/06/24 06:02:22;;;;;;;2.63;1.30;;;;;;;;;;5068318;27;88198;-53
2023/06/24 06:04:51;;;;;;;2.03;1.30;;;;;;;;;;5079069;27;89126;-53
2023/06/24 06:07:21;;;;;;;2.20;1.60;;;;;;;;;;5082627;27;87397;-53
2023/06/24 06:09:49;;;;;;;3.30;1.67;;;;;;;;;;5078791;27;89234;-53
2023/06/24 06:12:18;;;;;;;2.53;1.90;;;;;;;;;;5080990;27;87714;-53
2023/06/24 06:14:46;;;;;;;2.30;1.67;;;;;;;;;;5080461;27;87486;-53
2023/06/24 06:17:15;;;;;;;3.87;2.13;;;;;;;;;;5079709;27;89693;-53
2023/06/24 06:19:46;;;;;;;2.23;2.00;;;;;;;;;;5079530;27;89197;-52
2023/06/24 06:22:17;;;;;;;2.63;1.90;;;;;;;;;;5078354;27;89051;-53
2023/06/24 06:24:47;;;;;;;2.83;1.80;;;;;;;;;;5084162;27;87636;-53
2023/06/24 06:27:16;;;;;;;2.23;1.73;;;;;;;;;;5079281;27;88669;-53
2023/06/24 06:29:44;;;;;;;2.37;2.00;;;;;;;;;;5085078;27;89111;-54
2023/06/24 06:32:12;;;;;;;4.83;2.00;;;;;;;;;;5099502;27;88800;-54
2023/06/24 06:34:42;;;;;;;4.93;2.03;;;;;;;;;;5101054;27;88157;-54
2023/06/24 06:37:10;;;;;;;3.00;2.00;;;;;;;;;;5099420;27;88584;-54
2023/06/24 06:39:38;;;;;;;3.47;1.70;;;;;;;;;;5099273;27;89193;-53
2023/06/24 06:42:09;;;;;;;2.93;1.80;;;;;;;;;;5098430;27;87744;-53
2023/06/24 06:44:37;;;;;;;2.63;1.50;;;;;;;;;;5061790;27;87713;-54
2023/06/24 06:47:06;;;;;;;3.27;1.80;;;;;;;;;;5063411;27;89651;-54
2023/06/24 06:49:34;;;;;;;1.50;1.30;;;;;;;;;;5067823;27;87915;-54
2023/06/24 06:52:02;;;;;;;3.20;1.83;;;;;;;;;;5068128;27;87511;-54
2023/06/24 06:54:31;;;;;;;3.17;1.60;;;;;;;;;;5074370;27;88007;-54
2023/06/24 06:57:01;;;;;;;2.60;1.60;;;;;;;;;;5068267;27;89771;-54
2023/06/24 06:59:31;;;;;;;2.07;1.60;;;;;;;;;;5078803;27;88270;-55
2023/06/24 07:02:00;;;;;;;2.23;1.60;;;;;;;;;;5076451;27;87715;-54
2023/06/24 07:04:28;;;;;;;3.33;2.03;;;;;;;;;;5072236;27;88141;-54
2023/06/24 07:06:56;;;;;;;3.53;1.13;;;;;;;;;;5059085;27;88449;-54
2023/06/24 07:09:25;;;;;;;1.93;1.23;;;;;;;;;;5073975;27;88987;-54
2023/06/24 07:11:53;;;;;;;1.53;1.30;;;;;;;;;;5067755;27;88875;-54
2023/06/24 07:14:22;;;;;;;2.47;1.50;;;;;;;;;;5068283;27;88313;-54
2023/06/24 07:16:51;;;;;;;3.37;1.70;;;;;;;;;;5069805;27;88833;-54
2023/06/24 07:19:20;;;;;;;2.27;1.37;;;;;;;;;;5059672;27;89025;-54
2023/06/24 07:21:48;;;;;;;8.97;1.70;;;;;;;;;;5073809;27;89808;-54
2023/06/24 07:24:17;;;;;;;3.03;1.67;;;;;;;;;;5075195;27;87661;-54
2023/06/24 07:26:45;;;;;;;3.10;1.33;;;;;;;;;;5072850;27;88627;-54
2023/06/24 07:29:13;;;;;;;3.33;2.03;;;;;;;;;;5063065;27;88444;-53
2023/06/24 07:31:42;;;;;;;2.07;1.20;;;;;;;;;;5065674;27;88751;-54
2023/06/24 07:34:12;;;;;;;2.23;1.50;;;;;;;;;;5059456;27;87748;-54
2023/06/24 07:36:40;;;;;;;2.03;1.40;;;;;;;;;;5058439;27;89771;-54
2023/06/24 07:39:09;;;;;;;3.17;1.90;;;;;;;;;;5073913;27;87609;-53
2023/06/24 07:41:37;;;;;;;2.20;1.50;;;;;;;;;;5061545;27;88970;-54
2023/06/24 07:44:05;;;;;;;3.07;1.47;;;;;;;;;;5062027;27;88041;-54
2023/06/24 07:46:34;;;;;;;1.17;1.07;;;;;;;;;;5061704;27;88545;-54
2023/06/24 07:49:02;;;;;;;1.57;1.33;;;;;;;;;;5071406;27;88291;-54
2023/06/24 07:51:34;;;;;;;2.60;1.47;;;;;;;;;;5072369;27;87647;-54
2023/06/24 07:54:03;;;;;;;5.10;1.53;;;;;;;;;;5073140;27;87263;-54
2023/06/24 07:56:31;;;;;;;2.20;1.60;;;;;;;;;;5076376;27;89916;-54
2023/06/24 07:59:00;;;;;;;2.63;1.43;;;;;;;;;;5076687;27;89225;-54
2023/06/24 08:01:28;;;;;;;2.83;1.60;;;;;;;;;;5079266;27;89099;-54
2023/06/24 08:03:57;;;;;;;4.77;1.73;;;;;;;;;;5075878;27;88325;-54
2023/06/24 08:06:25;;;;;;;1.43;1.33;;;;;;;;;;5081315;27;90039;-54
2023/06/24 08:08:55;;;;;;;2.63;1.77;;;;;;;;;;5080717;27;89208;-54
2023/06/24 08:11:23;;;;;;;3.43;2.27;;;;;;;;;;5080831;27;89857;-54
2023/06/24 08:13:52;;;;;;;2.87;1.73;;;;;;;;;;5081266;27;87271;-54
2023/06/24 08:16:20;;;;;;;3.77;1.73;;;;;;;;;;5077657;27;89794;-54
2023/06/24 08:18:48;;;;;;;4.67;1.97;;;;;;;;;;5077633;27;88106;-54
2023/06/24 08:21:17;;;;;;;3.73;2.10;;;;;;;;;;5078103;27;87796;-54
2023/06/24 08:23:45;;;;;;;2.40;1.60;;;;;;;;;;5078061;27;87653;-53
2023/06/24 08:26:15;;;;;;;3.83;1.80;;;;;;;;;;5056704;27;89834;-53
2023/06/24 08:28:45;;;;;;;2.10;1.63;;;;;;;;;;5076559;27;87842;-53
2023/06/24 08:31:14;;;;;;;2.43;1.57;;;;;;;;;;5076956;27;87532;-53
2023/06/24 08:33:43;;;;;;;3.03;1.87;;;;;;;;;;5073855;27;88558;-53
2023/06/24 08:36:12;;;;;;;2.40;1.50;;;;;;;;;;5061382;27;89785;-54
2023/06/24 08:38:40;;;;;;;1.40;1.30;;;;;;;;;;5061002;27;89365;-53
2023/06/24 08:41:08;;;;;;;2.83;1.50;;;;;;;;;;5060762;27;89005;-53
2023/06/24 08:43:38;;;;;;;1.90;1.50;;;;;;;;;;5061213;27;87597;-53
2023/06/24 08:46:07;;;;;;;1.87;1.43;;;;;;;;;;5061260;27;90771;-53
2023/06/24 08:48:39;;;;;;;2.37;1.67;;;;;;;;;;5061138;27;89026;-55
2023/06/24 08:51:09;;;;;;;3.50;2.13;;;;;;;;;;5071752;27;88672;-56
2023/06/24 08:53:37;;;;;;;6.43;2.17;;;;;;;;;;5072405;27;87892;-55
2023/06/24 08:56:06;;;;;;;3.60;2.07;;;;;;;;;;5080781;27;88877;-55
2023/06/24 08:58:35;;;;;;;5.13;1.57;;;;;;;;;;5080735;27;90241;-55
2023/06/24 09:01:04;;;;;;;2.83;1.47;;;;;;;;;;5080679;27;89831;-55
2023/06/24 09:03:33;;;;;;;5.37;1.90;;;;;;;;;;5081281;27;87711;-55
2023/06/24 09:06:01;;;;;;;2.73;1.53;;;;;;;;;;5080640;27;89615;-54
2023/06/24 09:08:30;;;;;;;5.90;1.90;;;;;;;;;;5081198;27;87680;-55
2023/06/24 09:10:58;;;;;;;3.00;1.77;;;;;;;;;;5068377;27;89136;-55
2023/06/24 09:13:29;;;;;;;5.27;1.73;;;;;;;;;;5081555;27;88082;-56
2023/06/24 09:15:57;;;;;;;4.57;1.70;;;;;;;;;;5080383;27;89851;-56
2023/06/24 09:18:30;;;;;;;2.90;2.00;;;;;;;;;;5080735;27;89265;-55
2023/06/24 09:21:01;;;;;;;4.70;2.27;;;;;;;;;;5080538;27;89036;-56
2023/06/24 09:23:29;;;;;;;4.03;2.40;;;;;;;;;;5080289;27;88455;-56
2023/06/24 09:25:58;;;;;;;3.77;2.57;;;;;;;;;;5079623;27;89826;-55
2023/06/24 09:28:28;;;;;;;4.70;2.40;;;;;;;;;;5080797;27;89141;-55
2023/06/24 09:31:06;;;;;;;3.37;2.20;;;;;;;;;;5080525;27;87742;-55
2023/06/24 09:33:48;;;;;;;5.33;2.93;;;;;;;;;;5081542;27;88114;-55
2023/06/24 09:36:17;;;;;;;4.03;2.53;;;;;;;;;;5080757;27;89789;-55
2023/06/24 09:38:45;;;;;;;5.67;3.23;;;;;;;;;;5079836;27;88084;-56
2023/06/24 09:41:14;;;;;;;7.23;3.23;;;;;;;;;;5080037;27;88799;-55
2023/06/24 09:43:44;;;;;;;8.40;3.10;;;;;;;;;;5079513;27;87398;-55
2023/06/24 09:46:12;;;;;;;8.70;3.00;;;;;;;;;;5079499;27;89674;-54
2023/06/24 09:48:40;;;;;;;4.47;3.00;;;;;;;;;;5080211;27;88875;-56
2023/06/24 09:51:10;;;;;;;3.77;2.77;;;;;;;;;;5080649;27;88759;-55
2023/06/24 09:53:39;;;;;;;4.57;2.73;;;;;;;;;;5080632;27;87970;-55
2023/06/24 09:56:09;;;;;;;4.33;3.07;;;;;;;;;;5080502;27;89680;-55
2023/06/24 09:58:37;;;;;;;6.07;3.13;;;;;;;;;;5079998;27;87481;-54
2023/06/24 10:01:06;;;;;;;3.23;2.53;;;;;;;;;;5080600;27;88819;-55
2023/06/24 10:03:35;;;;;;;3.27;2.40;;;;;;;;;;5079499;27;87761;-56
2023/06/24 10:06:04;;;;;;;5.33;2.60;;;;;;;;;;5080160;27;88493;-55
2023/06/24 10:08:33;;;;;;;2.70;2.33;;;;;;;;;;5080249;27;89259;-55
2023/06/24 10:11:02;;;;;;;4.80;2.50;;;;;;;;;;5080374;27;88791;-55
2023/06/24 10:13:30;;;;;;;3.13;2.37;;;;;;;;;;5079691;27;88245;-56
2023/06/24 10:15:59;;;;;;;5.17;2.13;;;;;;;;;;5080018;27;89787;-56
2023/06/24 10:18:34;;;;;;;4.27;2.37;;;;;;;;;;5079935;27;88108;-55
2023/06/24 10:21:02;;;;;;;7.47;3.00;;;;;;;;;;5079770;27;88715;-55
2023/06/24 10:23:31;;;;;;;5.03;2.50;;;;;;;;;;5080688;27;87493;-55
2023/06/24 10:26:01;;;;;;;5.10;2.93;;;;;;;;;;5080594;27;87553;-55
2023/06/24 10:28:44;;;;;;;3.93;2.50;;;;;;;;;;5079851;27;88160;-55
2023/06/24 10:31:12;;;;;;;3.03;1.80;;;;;;;;;;5079878;27;88874;-54
2023/06/24 10:33:41;;;;;;;3.33;2.27;;;;;;;;;;5079457;27;87694;-55
2023/06/24 10:36:19;;;;;;;2.73;2.00;;;;;;;;;;5079769;27;88637;-57
2023/06/24 10:38:56;;;;;;;4.77;2.53;;;;;;;;;;5078770;27;89144;-55
2023/06/24 10:41:25;;;;;;;5.20;2.00;;;;;;;;;;5079348;27;88798;-55
2023/06/24 10:43:54;;;;;;;4.23;2.60;;;;;;;;;;5079354;27;87711;-60
2023/06/24 10:46:24;;;;;;;4.30;2.23;;;;;;;;;;5079272;27;89351;-56
2023/06/24 10:48:52;;;;;;;5.83;2.90;;;;;;;;;;5079467;27;87446;-56
2023/06/24 10:51:21;;;;;;;2.73;2.37;;;;;;;;;;5079664;27;88260;-56
2023/06/24 10:53:49;;;;;;;2.37;1.77;;;;;;;;;;5079022;27;87648;-55
2023/06/24 10:56:20;;;;;;;3.40;1.90;;;;;;;;;;5079317;27;87621;-56
2023/06/24 10:58:58;;;;;;;4.83;2.50;;;;;;;;;;5078103;27;89313;-55
2023/06/24 11:01:26;;;;;;;3.53;2.00;;;;;;;;;;5079263;27;87685;-55
2023/06/24 11:03:54;;;;;;;3.67;2.40;;;;;;;;;;5078330;27;87921;-54
2023/06/24 11:06:23;;;;;;;3.33;2.30;;;;;;;;;;5078898;27;89704;-54
2023/06/24 11:08:51;;;;;;;1.70;1.60;;;;;;;;;;5077797;27;89087;-55
2023/06/24 11:11:21;;;;;;;4.47;2.30;;;;;;;;;;5078761;27;88864;-56
2023/06/24 11:13:50;;;;;;;4.33;2.03;;;;;;;;;;5079328;27;87643;-54
2023/06/24 11:16:23;;;;;;;4.47;2.40;;;;;;;;;;5078038;27;88055;-54
2023/06/24 11:18:51;;;;;;;2.27;1.80;;;;;;;;;;5079234;27;88134;-54
2023/06/24 11:21:19;;;;;;;3.33;2.20;;;;;;;;;;5078286;27;88919;-55
2023/06/24 11:23:48;;;;;;;3.30;1.77;;;;;;;;;;5078775;27;88145;-55
2023/06/24 11:26:16;;;;;;;3.53;2.00;;;;;;;;;;5078087;27;89826;-55
2023/06/24 11:28:44;;;;;;;1.90;1.47;;;;;;;;;;5077498;27;89953;-55
2023/06/24 11:31:14;;;;;;;3.10;1.83;;;;;;;;;;5078720;27;89981;-55
2023/06/24 11:33:44;;;;;;;2.03;1.90;;;;;;;;;;5078342;27;88129;-55
2023/06/24 11:36:13;;;;;;;3.33;2.67;;;;;;;;;;5077930;27;89550;-56
2023/06/24 11:38:41;;;;;;;2.00;1.80;;;;;;;;;;5078702;27;88181;-55
2023/06/24 11:41:09;;;;;;;2.57;1.90;;;;;;;;;;5077881;27;88931;-56
2023/06/24 11:43:38;;;;;;;2.63;1.70;;;;;;;;;;5078684;27;87645;-55
2023/06/24 11:46:06;;;;;;;3.00;2.07;;;;;;;;;;5078707;27;89279;-55
2023/06/24 11:48:40;;;;;;;3.07;1.80;;;;;;;;;;5078619;27;89313;-56
2023/06/24 11:51:15;;;;;;;1.70;1.60;;;;;;;;;;5078592;27;87547;-55
2023/06/24 11:53:43;;;;;;;1.47;1.37;;;;;;;;;;5078133;27;87974;-55
2023/06/24 11:56:12;;;;;;;2.37;1.73;;;;;;;;;;5078298;27;89839;-55
2023/06/24 11:58:40;;;;;;;2.80;1.83;;;;;;;;;;5078562;27;88605;-55
2023/06/24 12:01:09;;;;;;;3.03;1.90;;;;;;;;;;5078797;27;88833;-55
2023/06/24 12:03:37;;;;;;;2.00;1.80;;;;;;;;;;5078711;27;87644;-56
2023/06/24 12:06:06;;;;;;;2.60;1.30;;;;;;;;;;5077711;27;88534;-54
2023/06/24 12:08:35;;;;;;;2.00;1.57;;;;;;;;;;5078140;27;88183;-55
2023/06/24 12:11:19;;;;;;;2.13;1.63;;;;;;;;;;5077324;27;88684;-54
2023/06/24 12:13:47;;;;;;;3.00;1.50;;;;;;;;;;5078234;27;87535;-55
2023/06/24 12:16:16;;;;;;;5.17;1.63;;;;;;;;;;5077140;27;89676;-55
2023/06/24 12:18:44;;;;;;;1.53;1.40;;;;;;;;;;5077463;27;90386;-54
2023/06/24 12:21:13;;;;;;;2.30;1.60;;;;;;;;;;5078124;27;88750;-54
2023/06/24 12:23:42;;;;;;;1.97;1.70;;;;;;;;;;5077802;27;87674;-55
2023/06/24 12:26:11;;;;;;;2.90;1.67;;;;;;;;;;5077729;27;87608;-55
2023/06/24 12:28:39;;;;;;;1.60;1.50;;;;;;;;;;5077037;27;89314;-56
2023/06/24 12:31:08;;;;;;;1.77;1.60;;;;;;;;;;5078181;27;87951;-55
2023/06/24 12:33:36;;;;;;;1.83;1.30;;;;;;;;;;5077604;27;87667;-55
2023/06/24 12:36:05;;;;;;;3.23;1.60;;;;;;;;;;5077982;27;89902;-55
2023/06/24 12:38:33;;;;;;;2.30;1.50;;;;;;;;;;5077812;27;89172;-56
2023/06/24 12:41:03;;;;;;;2.53;1.50;;;;;;;;;;5077939;27;88012;-55
2023/06/24 12:43:31;;;;;;;2.30;1.30;;;;;;;;;;5077874;27;87917;-56
2023/06/24 12:45:59;;;;;;;2.03;1.73;;;;;;;;;;5077770;27;88716;-55
2023/06/24 12:48:28;;;;;;;1.87;1.50;;;;;;;;;;5078377;27;88401;-55
2023/06/24 12:50:56;;;;;;;2.40;1.50;;;;;;;;;;5078804;27;87897;-55
2023/06/24 12:53:24;;;;;;;1.93;1.60;;;;;;;;;;5078956;27;87635;-54
2023/06/24 12:55:53;;;;;;;3.13;1.87;;;;;;;;;;5078524;27;89672;-54
2023/06/24 12:58:23;;;;;;;2.73;1.70;;;;;;;;;;5077093;27;88242;-55
2023/06/24 13:00:52;;;;;;;2.20;1.90;;;;;;;;;;5078476;27;88112;-54
2023/06/24 13:03:20;;;;;;;2.37;1.97;;;;;;;;;;5077991;27;87675;-55
2023/06/24 13:05:48;;;;;;;3.90;2.20;;;;;;;;;;5077382;27;89585;-55
2023/06/24 13:08:17;;;;;;;5.00;2.47;;;;;;;;;;5076389;27;90489;-54
2023/06/24 13:10:45;;;;;;;2.83;2.47;;;;;;;;;;5077467;27;89899;-55
2023/06/24 13:13:14;;;;;;;4.17;2.97;;;;;;;;;;5078032;27;87479;-56
2023/06/24 13:15:43;;;;;;;3.83;3.20;;;;;;;;;;5077698;27;89643;-55
2023/06/24 13:18:12;;;;;;;2.53;2.33;;;;;;;;;;5078716;27;89424;-55
2023/06/24 13:20:40;;;;;;;3.40;2.83;;;;;;;;;;5080325;27;87871;-55
2023/06/24 13:23:09;;;;;;;4.03;2.83;;;;;;;;;;5080620;27;87732;-56
2023/06/24 13:25:38;;;;;;;2.90;2.57;;;;;;;;;;5081090;27;88686;-56
2023/06/24 13:28:07;;;;;;;2.70;2.43;;;;;;;;;;5079779;27;89167;-55
2023/06/24 13:30:35;;;;;;;4.17;2.80;;;;;;;;;;5080795;27;89313;-56
2023/06/24 13:33:06;;;;;;;6.23;2.67;;;;;;;;;;5080800;27;88463;-55
2023/06/24 13:35:34;;;;;;;3.07;2.70;;;;;;;;;;5081068;27;89758;-56
2023/06/24 13:38:03;;;;;;;4.33;2.57;;;;;;;;;;5080574;27;89316;-55
2023/06/24 13:40:32;;;;;;;3.80;3.00;;;;;;;;;;5080693;27;89210;-56
2023/06/24 13:43:01;;;;;;;3.33;2.67;;;;;;;;;;5081057;27;87479;-55
2023/06/24 13:45:29;;;;;;;3.03;2.43;;;;;;;;;;5080275;27;89216;-55
2023/06/24 13:47:58;;;;;;;4.33;3.10;;;;;;;;;;5080271;27;87607;-55
2023/06/24 13:50:29;;;;;;;2.97;2.50;;;;;;;;;;5080362;27;87814;-55
2023/06/24 13:52:57;;;;;;;3.37;2.73;;;;;;;;;;5080555;27;87718;-55
2023/06/24 13:55:25;;;;;;;3.57;2.53;;;;;;;;;;5080395;27;88711;-55
2023/06/24 13:57:54;;;;;;;3.20;2.60;;;;;;;;;;5079544;27;89250;-54
2023/06/24 14:00:22;;;;;;;2.90;2.60;;;;;;;;;;5080414;27;88962;-55
2023/06/24 14:02:51;;;;;;;4.90;2.87;;;;;;;;;;5079937;27;87623;-55
2023/06/24 14:05:19;;;;;;;4.10;2.33;;;;;;;;;;5079849;27;89591;-54
2023/06/24 14:07:49;;;;;;;3.07;2.17;;;;;;;;;;5079292;27;89125;-55
2023/06/24 14:10:17;;;;;;;2.90;2.10;;;;;;;;;;5079347;27;88983;-55
2023/06/24 14:12:46;;;;;;;2.67;2.00;;;;;;;;;;5080545;27;87510;-55
2023/06/24 14:15:14;;;;;;;4.33;2.30;;;;;;;;;;5080185;27;88946;-55
2023/06/24 14:17:43;;;;;;;3.37;2.10;;;;;;;;;;5079611;27;88555;-55
2023/06/24 14:20:12;;;;;;;3.67;2.67;;;;;;;;;;5079363;27;89017;-55
2023/06/24 14:22:40;;;;;;;3.67;2.43;;;;;;;;;;5079114;27;87996;-55
2023/06/24 14:25:10;;;;;;;2.60;2.10;;;;;;;;;;5080016;27;89356;-56
2023/06/24 14:27:39;;;;;;;3.17;2.17;;;;;;;;;;5079623;27;88032;-55
2023/06/24 14:30:08;;;;;;;2.80;2.17;;;;;;;;;;5079117;27;88982;-55
2023/06/24 14:32:36;;;;;;;3.10;2.03;;;;;;;;;;5079865;27;87366;-56
2023/06/24 14:35:05;;;;;;;2.57;2.00;;;;;;;;;;5079338;27;89972;-56
2023/06/24 14:37:34;;;;;;;4.20;2.93;;;;;;;;;;5079185;27;88954;-55
2023/06/24 14:40:02;;;;;;;2.80;2.60;;;;;;;;;;5079989;27;89218;-55
2023/06/24 14:42:32;;;;;;;2.80;2.00;;;;;;;;;;5080106;27;88291;-54
2023/06/24 14:45:00;;;;;;;2.53;2.20;;;;;;;;;;5079636;27;88968;-55
2023/06/24 14:47:28;;;;;;;1.97;1.77;;;;;;;;;;5081373;27;90515;-55
2023/06/24 14:49:57;;;;;;;2.33;1.83;;;;;;;;;;5100021;27;89850;-55
2023/06/24 14:52:25;;;;;;;2.87;2.07;;;;;;;;;;5100054;27;87694;-55
2023/06/24 14:54:53;;;;;;;2.97;2.30;;;;;;;;;;5100245;27;89894;-55